sensor_id;sensor_type;location;lat;lon;timestamp;P1;durP1;ratioP1;P2;durP2;ratioP2
1471;SDS011;963;42.644;23.336;2024-02-26T00:00:08;9.77;;;7.50;;
1471;SDS011;963;42.644;23.336;2024-02-26T00:02:35;9.80;;;7.10;;
1471;SDS011;963;42.644;23.336;2024-02-26T00:05:08;12.20;;;7.77;;
1471;SDS011;963;42.644;23.336;2024-02-26T00:07:33;12.77;;;8.03;;
1471;SDS011;963;42.644;23.336;2024-02-26T00:09:59;9.33;;;7.30;;
1471;SDS011;963;42.644;23.336;2024-02-26T00:12:24;10.90;;;6.33;;
1471;SDS011;963;42.644;23.336;2024-02-26T00:14:49;8.03;;;6.90;;
1471;SDS011;963;42.644;23.336;2024-02-26T00:17:15;9.47;;;6.50;;
1471;SDS011;963;42.644;23.336;2024-02-26T00:19:41;10.53;;;7.10;;
1471;SDS011;963;42.644;23.336;2024-02-26T00:22:06;8.00;;;6.60;;
1471;SDS011;963;42.644;23.336;2024-02-26T00:24:32;9.77;;;6.77;;
1471;SDS011;963;42.644;23.336;2024-02-26T00:26:58;11.63;;;7.83;;
1471;SDS011;963;42.644;23.336;2024-02-26T00:29:24;14.47;;;10.13;;
1471;SDS011;963;42.644;23.336;2024-02-26T00:31:50;12.93;;;8.73;;
1471;SDS011;963;42.644;23.336;2024-02-26T00:34:16;14.70;;;10.90;;
1471;SDS011;963;42.644;23.336;2024-02-26T00:36:41;13.23;;;10.57;;
1471;SDS011;963;42.644;23.336;2024-02-26T00:39:07;18.63;;;12.50;;
1471;SDS011;963;42.644;23.336;2024-02-26T00:41:32;18.63;;;14.23;;
1471;SDS011;963;42.644;23.336;2024-02-26T00:43:57;21.17;;;14.80;;
1471;SDS011;963;42.644;23.336;2024-02-26T00:46:23;17.33;;;13.23;;
1471;SDS011;963;42.644;23.336;2024-02-26T00:48:48;14.33;;;10.63;;
1471;SDS011;963;42.644;23.336;2024-02-26T00:51:14;18.47;;;12.73;;
1471;SDS011;963;42.644;23.336;2024-02-26T00:53:40;19.40;;;12.63;;
1471;SDS011;963;42.644;23.336;2024-02-26T00:56:05;22.57;;;15.33;;
1471;SDS011;963;42.644;23.336;2024-02-26T00:58:31;19.20;;;15.70;;
1471;SDS011;963;42.644;23.336;2024-02-26T01:00:57;24.70;;;14.83;;
1471;SDS011;963;42.644;23.336;2024-02-26T01:03:23;21.40;;;15.43;;
1471;SDS011;963;42.644;23.336;2024-02-26T01:05:48;27.70;;;15.90;;
1471;SDS011;963;42.644;23.336;2024-02-26T01:08:13;19.07;;;15.00;;
1471;SDS011;963;42.644;23.336;2024-02-26T01:10:39;22.53;;;15.60;;
1471;SDS011;963;42.644;23.336;2024-02-26T01:13:04;21.03;;;14.30;;
1471;SDS011;963;42.644;23.336;2024-02-26T01:15:29;22.63;;;15.40;;
1471;SDS011;963;42.644;23.336;2024-02-26T01:17:55;19.00;;;15.20;;
1471;SDS011;963;42.644;23.336;2024-02-26T01:20:20;24.60;;;15.90;;
1471;SDS011;963;42.644;23.336;2024-02-26T01:22:46;22.40;;;13.60;;
1471;SDS011;963;42.644;23.336;2024-02-26T01:25:11;16.27;;;13.73;;
1471;SDS011;963;42.644;23.336;2024-02-26T01:27:37;17.10;;;14.23;;
1471;SDS011;963;42.644;23.336;2024-02-26T01:30:03;20.63;;;15.27;;
1471;SDS011;963;42.644;23.336;2024-02-26T01:32:30;18.00;;;14.30;;
1471;SDS011;963;42.644;23.336;2024-02-26T01:34:56;20.13;;;15.07;;
1471;SDS011;963;42.644;23.336;2024-02-26T01:37:21;21.27;;;14.90;;
1471;SDS011;963;42.644;23.336;2024-02-26T01:39:47;19.73;;;14.90;;
1471;SDS011;963;42.644;23.336;2024-02-26T01:42:12;18.50;;;14.40;;
1471;SDS011;963;42.644;23.336;2024-02-26T01:44:37;20.20;;;14.60;;
1471;SDS011;963;42.644;23.336;2024-02-26T01:47:03;20.80;;;13.87;;
1471;SDS011;963;42.644;23.336;2024-02-26T01:49:30;21.47;;;13.37;;
1471;SDS011;963;42.644;23.336;2024-02-26T01:51:56;17.27;;;12.60;;
1471;SDS011;963;42.644;23.336;2024-02-26T01:54:22;20.30;;;14.20;;
1471;SDS011;963;42.644;23.336;2024-02-26T01:56:48;20.67;;;13.40;;
1471;SDS011;963;42.644;23.336;2024-02-26T01:59:15;17.77;;;12.67;;
1471;SDS011;963;42.644;23.336;2024-02-26T02:01:41;13.93;;;12.03;;
1471;SDS011;963;42.644;23.336;2024-02-26T02:04:12;14.00;;;11.20;;
1471;SDS011;963;42.644;23.336;2024-02-26T02:06:39;19.87;;;11.40;;
1471;SDS011;963;42.644;23.336;2024-02-26T02:09:06;22.20;;;13.10;;
1471;SDS011;963;42.644;23.336;2024-02-26T02:11:33;17.20;;;11.70;;
1471;SDS011;963;42.644;23.336;2024-02-26T02:13:59;19.37;;;12.47;;
1471;SDS011;963;42.644;23.336;2024-02-26T02:16:24;15.20;;;11.40;;
1471;SDS011;963;42.644;23.336;2024-02-26T02:18:50;15.77;;;11.60;;
1471;SDS011;963;42.644;23.336;2024-02-26T02:21:15;17.03;;;11.60;;
1471;SDS011;963;42.644;23.336;2024-02-26T02:23:41;16.60;;;11.40;;
1471;SDS011;963;42.644;23.336;2024-02-26T02:26:11;16.93;;;12.00;;
1471;SDS011;963;42.644;23.336;2024-02-26T02:28:36;15.50;;;11.63;;
1471;SDS011;963;42.644;23.336;2024-02-26T02:31:02;14.87;;;11.50;;
1471;SDS011;963;42.644;23.336;2024-02-26T02:33:28;22.17;;;13.30;;
1471;SDS011;963;42.644;23.336;2024-02-26T02:35:54;17.70;;;11.73;;
1471;SDS011;963;42.644;23.336;2024-02-26T02:38:20;17.27;;;12.00;;
1471;SDS011;963;42.644;23.336;2024-02-26T02:40:46;18.50;;;12.93;;
1471;SDS011;963;42.644;23.336;2024-02-26T02:43:11;17.40;;;13.00;;
1471;SDS011;963;42.644;23.336;2024-02-26T02:45:36;19.63;;;13.80;;
1471;SDS011;963;42.644;23.336;2024-02-26T02:48:02;17.80;;;12.63;;
1471;SDS011;963;42.644;23.336;2024-02-26T02:50:27;22.00;;;13.97;;
1471;SDS011;963;42.644;23.336;2024-02-26T02:52:54;21.53;;;14.50;;
1471;SDS011;963;42.644;23.336;2024-02-26T02:55:19;20.10;;;15.07;;
1471;SDS011;963;42.644;23.336;2024-02-26T02:57:45;23.57;;;15.30;;
1471;SDS011;963;42.644;23.336;2024-02-26T03:00:11;17.67;;;13.63;;
1471;SDS011;963;42.644;23.336;2024-02-26T03:02:37;19.80;;;14.30;;
1471;SDS011;963;42.644;23.336;2024-02-26T03:05:03;20.30;;;14.27;;
1471;SDS011;963;42.644;23.336;2024-02-26T03:07:29;16.20;;;13.23;;
1471;SDS011;963;42.644;23.336;2024-02-26T03:09:55;20.23;;;14.70;;
1471;SDS011;963;42.644;23.336;2024-02-26T03:12:20;20.03;;;13.60;;
1471;SDS011;963;42.644;23.336;2024-02-26T03:14:46;18.90;;;13.53;;
1471;SDS011;963;42.644;23.336;2024-02-26T03:17:11;18.27;;;13.43;;
1471;SDS011;963;42.644;23.336;2024-02-26T03:19:37;17.83;;;14.53;;
1471;SDS011;963;42.644;23.336;2024-02-26T03:22:02;20.80;;;13.53;;
1471;SDS011;963;42.644;23.336;2024-02-26T03:24:28;18.57;;;13.60;;
1471;SDS011;963;42.644;23.336;2024-02-26T03:26:53;20.73;;;13.43;;
1471;SDS011;963;42.644;23.336;2024-02-26T03:29:19;21.60;;;13.93;;
1471;SDS011;963;42.644;23.336;2024-02-26T03:31:44;21.83;;;14.57;;
1471;SDS011;963;42.644;23.336;2024-02-26T03:34:09;16.80;;;13.17;;
1471;SDS011;963;42.644;23.336;2024-02-26T03:36:37;21.90;;;14.57;;
1471;SDS011;963;42.644;23.336;2024-02-26T03:39:03;15.10;;;12.57;;
1471;SDS011;963;42.644;23.336;2024-02-26T03:41:32;21.33;;;14.07;;
1471;SDS011;963;42.644;23.336;2024-02-26T03:44:01;19.27;;;13.03;;
1471;SDS011;963;42.644;23.336;2024-02-26T03:46:26;25.00;;;14.83;;
1471;SDS011;963;42.644;23.336;2024-02-26T03:48:52;18.10;;;13.70;;
1471;SDS011;963;42.644;23.336;2024-02-26T03:51:17;20.90;;;13.80;;
1471;SDS011;963;42.644;23.336;2024-02-26T03:53:43;18.67;;;15.27;;
1471;SDS011;963;42.644;23.336;2024-02-26T03:56:08;24.53;;;16.17;;
1471;SDS011;963;42.644;23.336;2024-02-26T03:58:36;23.80;;;15.87;;
1471;SDS011;963;42.644;23.336;2024-02-26T04:01:01;20.70;;;15.57;;
1471;SDS011;963;42.644;23.336;2024-02-26T04:03:26;21.87;;;14.80;;
1471;SDS011;963;42.644;23.336;2024-02-26T04:05:52;23.47;;;15.77;;
1471;SDS011;963;42.644;23.336;2024-02-26T04:08:17;23.57;;;15.63;;
1471;SDS011;963;42.644;23.336;2024-02-26T04:10:42;23.70;;;16.40;;
1471;SDS011;963;42.644;23.336;2024-02-26T04:13:08;20.23;;;15.00;;
1471;SDS011;963;42.644;23.336;2024-02-26T04:15:33;25.50;;;15.60;;
1471;SDS011;963;42.644;23.336;2024-02-26T04:17:59;25.00;;;16.20;;
1471;SDS011;963;42.644;23.336;2024-02-26T04:20:24;22.63;;;15.23;;
1471;SDS011;963;42.644;23.336;2024-02-26T04:22:50;22.10;;;16.20;;
1471;SDS011;963;42.644;23.336;2024-02-26T04:25:16;21.00;;;15.13;;
1471;SDS011;963;42.644;23.336;2024-02-26T04:27:41;22.23;;;14.30;;
1471;SDS011;963;42.644;23.336;2024-02-26T04:30:07;20.27;;;14.50;;
1471;SDS011;963;42.644;23.336;2024-02-26T04:32:33;20.57;;;14.17;;
1471;SDS011;963;42.644;23.336;2024-02-26T04:34:59;17.30;;;14.07;;
1471;SDS011;963;42.644;23.336;2024-02-26T04:37:25;24.80;;;15.43;;
1471;SDS011;963;42.644;23.336;2024-02-26T04:39:55;20.23;;;13.83;;
1471;SDS011;963;42.644;23.336;2024-02-26T04:42:24;22.43;;;14.50;;
1471;SDS011;963;42.644;23.336;2024-02-26T04:44:49;23.97;;;14.60;;
1471;SDS011;963;42.644;23.336;2024-02-26T04:47:15;16.40;;;12.97;;
1471;SDS011;963;42.644;23.336;2024-02-26T04:49:40;20.97;;;15.30;;
1471;SDS011;963;42.644;23.336;2024-02-26T04:52:06;22.17;;;16.17;;
1471;SDS011;963;42.644;23.336;2024-02-26T04:54:31;21.40;;;14.87;;
1471;SDS011;963;42.644;23.336;2024-02-26T04:56:56;21.13;;;13.90;;
1471;SDS011;963;42.644;23.336;2024-02-26T04:59:22;20.23;;;13.90;;
1471;SDS011;963;42.644;23.336;2024-02-26T05:01:47;17.73;;;13.07;;
1471;SDS011;963;42.644;23.336;2024-02-26T05:04:12;20.90;;;13.90;;
1471;SDS011;963;42.644;23.336;2024-02-26T05:06:38;18.63;;;12.10;;
1471;SDS011;963;42.644;23.336;2024-02-26T05:09:03;18.33;;;12.37;;
1471;SDS011;963;42.644;23.336;2024-02-26T05:11:29;16.23;;;11.23;;
1471;SDS011;963;42.644;23.336;2024-02-26T05:13:54;15.23;;;11.37;;
1471;SDS011;963;42.644;23.336;2024-02-26T05:16:19;17.87;;;12.07;;
1471;SDS011;963;42.644;23.336;2024-02-26T05:18:47;18.67;;;13.60;;
1471;SDS011;963;42.644;23.336;2024-02-26T05:21:12;19.00;;;12.27;;
1471;SDS011;963;42.644;23.336;2024-02-26T05:23:37;13.00;;;10.10;;
1471;SDS011;963;42.644;23.336;2024-02-26T05:26:03;16.97;;;10.67;;
1471;SDS011;963;42.644;23.336;2024-02-26T05:28:28;11.60;;;9.67;;
1471;SDS011;963;42.644;23.336;2024-02-26T05:30:54;12.47;;;9.77;;
1471;SDS011;963;42.644;23.336;2024-02-26T05:33:19;16.67;;;10.10;;
1471;SDS011;963;42.644;23.336;2024-02-26T05:35:44;12.60;;;9.27;;
1471;SDS011;963;42.644;23.336;2024-02-26T05:38:10;15.07;;;9.77;;
1471;SDS011;963;42.644;23.336;2024-02-26T05:40:35;14.50;;;10.77;;
1471;SDS011;963;42.644;23.336;2024-02-26T05:43:01;12.43;;;9.40;;
1471;SDS011;963;42.644;23.336;2024-02-26T05:45:26;14.60;;;10.53;;
1471;SDS011;963;42.644;23.336;2024-02-26T05:47:51;18.53;;;9.93;;
1471;SDS011;963;42.644;23.336;2024-02-26T05:50:17;17.27;;;10.97;;
1471;SDS011;963;42.644;23.336;2024-02-26T05:52:42;17.50;;;10.83;;
1471;SDS011;963;42.644;23.336;2024-02-26T05:55:08;19.00;;;11.67;;
1471;SDS011;963;42.644;23.336;2024-02-26T05:57:34;16.43;;;10.37;;
1471;SDS011;963;42.644;23.336;2024-02-26T06:00:00;16.47;;;11.00;;
1471;SDS011;963;42.644;23.336;2024-02-26T06:02:29;20.60;;;12.20;;
1471;SDS011;963;42.644;23.336;2024-02-26T06:04:55;26.87;;;11.83;;
1471;SDS011;963;42.644;23.336;2024-02-26T06:07:20;18.77;;;10.10;;
1471;SDS011;963;42.644;23.336;2024-02-26T06:09:45;11.20;;;9.40;;
1471;SDS011;963;42.644;23.336;2024-02-26T06:12:11;13.43;;;9.70;;
1471;SDS011;963;42.644;23.336;2024-02-26T06:14:36;11.07;;;9.70;;
1471;SDS011;963;42.644;23.336;2024-02-26T06:17:01;19.03;;;10.40;;
1471;SDS011;963;42.644;23.336;2024-02-26T06:19:27;13.00;;;10.23;;
1471;SDS011;963;42.644;23.336;2024-02-26T06:21:52;16.00;;;10.70;;
1471;SDS011;963;42.644;23.336;2024-02-26T06:24:17;16.13;;;10.90;;
1471;SDS011;963;42.644;23.336;2024-02-26T06:26:45;16.00;;;10.57;;
1471;SDS011;963;42.644;23.336;2024-02-26T06:29:10;14.90;;;11.13;;
1471;SDS011;963;42.644;23.336;2024-02-26T06:31:36;15.80;;;11.63;;
1471;SDS011;963;42.644;23.336;2024-02-26T06:34:01;14.00;;;10.63;;
1471;SDS011;963;42.644;23.336;2024-02-26T06:36:26;17.53;;;12.30;;
1471;SDS011;963;42.644;23.336;2024-02-26T06:38:52;16.87;;;11.73;;
1471;SDS011;963;42.644;23.336;2024-02-26T06:41:19;16.30;;;11.77;;
1471;SDS011;963;42.644;23.336;2024-02-26T06:43:44;25.73;;;12.40;;
1471;SDS011;963;42.644;23.336;2024-02-26T06:46:10;23.77;;;12.10;;
1471;SDS011;963;42.644;23.336;2024-02-26T06:48:35;19.03;;;12.00;;
1471;SDS011;963;42.644;23.336;2024-02-26T06:51:02;26.53;;;13.20;;
1471;SDS011;963;42.644;23.336;2024-02-26T06:53:27;31.83;;;18.93;;
1471;SDS011;963;42.644;23.336;2024-02-26T06:55:53;23.50;;;14.37;;
1471;SDS011;963;42.644;23.336;2024-02-26T06:58:18;17.23;;;11.90;;
1471;SDS011;963;42.644;23.336;2024-02-26T07:00:43;18.57;;;12.20;;
1471;SDS011;963;42.644;23.336;2024-02-26T07:03:09;19.30;;;11.77;;
1471;SDS011;963;42.644;23.336;2024-02-26T07:05:34;19.60;;;12.60;;
1471;SDS011;963;42.644;23.336;2024-02-26T07:08:00;17.63;;;12.00;;
1471;SDS011;963;42.644;23.336;2024-02-26T07:10:25;18.97;;;13.37;;
1471;SDS011;963;42.644;23.336;2024-02-26T07:12:50;18.17;;;12.37;;
1471;SDS011;963;42.644;23.336;2024-02-26T07:15:16;17.20;;;10.77;;
1471;SDS011;963;42.644;23.336;2024-02-26T07:17:41;15.77;;;10.97;;
1471;SDS011;963;42.644;23.336;2024-02-26T07:20:11;15.00;;;11.20;;
1471;SDS011;963;42.644;23.336;2024-02-26T07:22:37;20.20;;;10.27;;
1471;SDS011;963;42.644;23.336;2024-02-26T07:25:02;18.63;;;9.73;;
1471;SDS011;963;42.644;23.336;2024-02-26T07:27:28;16.67;;;9.63;;
1471;SDS011;963;42.644;23.336;2024-02-26T07:29:54;13.93;;;9.30;;
1471;SDS011;963;42.644;23.336;2024-02-26T07:32:19;14.30;;;8.87;;
1471;SDS011;963;42.644;23.336;2024-02-26T07:34:44;17.40;;;10.30;;
1471;SDS011;963;42.644;23.336;2024-02-26T07:37:10;19.10;;;12.43;;
1471;SDS011;963;42.644;23.336;2024-02-26T07:39:36;18.90;;;11.07;;
1471;SDS011;963;42.644;23.336;2024-02-26T07:42:02;18.07;;;11.07;;
1471;SDS011;963;42.644;23.336;2024-02-26T07:44:28;16.00;;;9.97;;
1471;SDS011;963;42.644;23.336;2024-02-26T07:46:53;21.17;;;10.37;;
1471;SDS011;963;42.644;23.336;2024-02-26T07:49:19;18.00;;;11.30;;
1471;SDS011;963;42.644;23.336;2024-02-26T07:51:44;14.70;;;9.43;;
1471;SDS011;963;42.644;23.336;2024-02-26T07:54:10;16.90;;;10.27;;
1471;SDS011;963;42.644;23.336;2024-02-26T07:56:35;15.60;;;9.00;;
1471;SDS011;963;42.644;23.336;2024-02-26T07:59:00;14.30;;;9.13;;
1471;SDS011;963;42.644;23.336;2024-02-26T08:01:26;12.30;;;8.23;;
1471;SDS011;963;42.644;23.336;2024-02-26T08:03:52;14.17;;;8.87;;
1471;SDS011;963;42.644;23.336;2024-02-26T08:06:18;16.73;;;8.00;;
1471;SDS011;963;42.644;23.336;2024-02-26T08:08:43;13.07;;;8.27;;
1471;SDS011;963;42.644;23.336;2024-02-26T08:11:09;15.83;;;8.03;;
1471;SDS011;963;42.644;23.336;2024-02-26T08:13:34;11.63;;;7.37;;
1471;SDS011;963;42.644;23.336;2024-02-26T08:16:00;11.80;;;7.53;;
1471;SDS011;963;42.644;23.336;2024-02-26T08:18:26;14.57;;;7.83;;
1471;SDS011;963;42.644;23.336;2024-02-26T08:20:51;9.20;;;7.23;;
1471;SDS011;963;42.644;23.336;2024-02-26T08:23:17;11.83;;;7.00;;
1471;SDS011;963;42.644;23.336;2024-02-26T08:25:42;11.03;;;6.63;;
1471;SDS011;963;42.644;23.336;2024-02-26T08:28:08;12.10;;;7.20;;
1471;SDS011;963;42.644;23.336;2024-02-26T08:30:33;13.50;;;7.00;;
1471;SDS011;963;42.644;23.336;2024-02-26T08:32:59;10.10;;;7.53;;
1471;SDS011;963;42.644;23.336;2024-02-26T08:35:24;14.10;;;8.40;;
1471;SDS011;963;42.644;23.336;2024-02-26T08:37:50;16.13;;;9.03;;
1471;SDS011;963;42.644;23.336;2024-02-26T08:40:16;10.50;;;7.60;;
1471;SDS011;963;42.644;23.336;2024-02-26T08:42:41;12.97;;;7.00;;
1471;SDS011;963;42.644;23.336;2024-02-26T08:45:07;13.30;;;7.17;;
1471;SDS011;963;42.644;23.336;2024-02-26T08:47:33;8.50;;;6.20;;
1471;SDS011;963;42.644;23.336;2024-02-26T08:49:58;11.20;;;7.03;;
1471;SDS011;963;42.644;23.336;2024-02-26T08:52:24;11.50;;;6.57;;
1471;SDS011;963;42.644;23.336;2024-02-26T08:54:49;10.13;;;6.30;;
1471;SDS011;963;42.644;23.336;2024-02-26T08:57:15;10.37;;;6.90;;
1471;SDS011;963;42.644;23.336;2024-02-26T08:59:40;9.80;;;6.60;;
1471;SDS011;963;42.644;23.336;2024-02-26T09:02:06;17.57;;;7.40;;
1471;SDS011;963;42.644;23.336;2024-02-26T09:04:34;8.33;;;6.60;;
1471;SDS011;963;42.644;23.336;2024-02-26T09:07:00;8.30;;;6.33;;
1471;SDS011;963;42.644;23.336;2024-02-26T09:09:26;10.00;;;6.87;;
1471;SDS011;963;42.644;23.336;2024-02-26T09:11:51;17.03;;;7.10;;
1471;SDS011;963;42.644;23.336;2024-02-26T09:14:17;14.13;;;7.23;;
1471;SDS011;963;42.644;23.336;2024-02-26T09:16:43;12.67;;;7.30;;
1471;SDS011;963;42.644;23.336;2024-02-26T09:19:09;18.47;;;6.73;;
1471;SDS011;963;42.644;23.336;2024-02-26T09:21:34;8.43;;;6.07;;
1471;SDS011;963;42.644;23.336;2024-02-26T09:23:59;9.77;;;6.77;;
1471;SDS011;963;42.644;23.336;2024-02-26T09:26:25;7.53;;;6.40;;
1471;SDS011;963;42.644;23.336;2024-02-26T09:28:50;9.00;;;7.53;;
1471;SDS011;963;42.644;23.336;2024-02-26T09:31:17;13.30;;;7.13;;
1471;SDS011;963;42.644;23.336;2024-02-26T09:33:43;13.93;;;7.00;;
1471;SDS011;963;42.644;23.336;2024-02-26T09:36:08;12.83;;;6.53;;
1471;SDS011;963;42.644;23.336;2024-02-26T09:38:36;12.33;;;6.30;;
1471;SDS011;963;42.644;23.336;2024-02-26T09:41:03;7.53;;;5.23;;
1471;SDS011;963;42.644;23.336;2024-02-26T09:43:35;11.67;;;7.20;;
1471;SDS011;963;42.644;23.336;2024-02-26T09:46:01;7.70;;;6.80;;
1471;SDS011;963;42.644;23.336;2024-02-26T09:48:28;7.83;;;6.20;;
1471;SDS011;963;42.644;23.336;2024-02-26T09:50:54;9.43;;;6.70;;
1471;SDS011;963;42.644;23.336;2024-02-26T09:53:20;17.47;;;6.10;;
1471;SDS011;963;42.644;23.336;2024-02-26T09:55:47;12.27;;;7.20;;
1471;SDS011;963;42.644;23.336;2024-02-26T09:58:12;10.90;;;7.30;;
1471;SDS011;963;42.644;23.336;2024-02-26T10:00:43;11.40;;;7.90;;
1471;SDS011;963;42.644;23.336;2024-02-26T10:03:15;11.00;;;7.10;;
1471;SDS011;963;42.644;23.336;2024-02-26T10:05:41;10.03;;;7.17;;
1471;SDS011;963;42.644;23.336;2024-02-26T10:08:10;8.60;;;6.87;;
1471;SDS011;963;42.644;23.336;2024-02-26T10:10:37;10.60;;;6.90;;
1471;SDS011;963;42.644;23.336;2024-02-26T10:13:03;10.90;;;7.37;;
1471;SDS011;963;42.644;23.336;2024-02-26T10:15:35;9.87;;;7.00;;
1471;SDS011;963;42.644;23.336;2024-02-26T10:18:03;13.13;;;7.50;;
1471;SDS011;963;42.644;23.336;2024-02-26T10:20:29;13.47;;;7.47;;
1471;SDS011;963;42.644;23.336;2024-02-26T10:22:56;11.30;;;7.70;;
1471;SDS011;963;42.644;23.336;2024-02-26T10:25:22;14.23;;;6.97;;
1471;SDS011;963;42.644;23.336;2024-02-26T10:27:47;8.53;;;7.40;;
1471;SDS011;963;42.644;23.336;2024-02-26T10:30:15;8.83;;;6.90;;
1471;SDS011;963;42.644;23.336;2024-02-26T10:32:44;11.10;;;7.53;;
1471;SDS011;963;42.644;23.336;2024-02-26T10:35:10;9.80;;;6.83;;
1471;SDS011;963;42.644;23.336;2024-02-26T10:37:35;9.50;;;7.10;;
1471;SDS011;963;42.644;23.336;2024-02-26T10:40:01;7.53;;;6.73;;
1471;SDS011;963;42.644;23.336;2024-02-26T10:42:27;9.30;;;7.00;;
1471;SDS011;963;42.644;23.336;2024-02-26T10:44:52;8.20;;;7.07;;
1471;SDS011;963;42.644;23.336;2024-02-26T10:47:17;9.50;;;6.30;;
1471;SDS011;963;42.644;23.336;2024-02-26T10:49:46;8.60;;;7.27;;
1471;SDS011;963;42.644;23.336;2024-02-26T10:52:15;8.43;;;7.50;;
1471;SDS011;963;42.644;23.336;2024-02-26T10:54:43;8.63;;;7.10;;
1471;SDS011;963;42.644;23.336;2024-02-26T10:57:12;10.83;;;6.60;;
1471;SDS011;963;42.644;23.336;2024-02-26T10:59:41;10.80;;;7.40;;
1471;SDS011;963;42.644;23.336;2024-02-26T11:02:07;9.97;;;7.60;;
1471;SDS011;963;42.644;23.336;2024-02-26T11:04:34;9.97;;;7.23;;
1471;SDS011;963;42.644;23.336;2024-02-26T11:07:01;10.13;;;7.80;;
1471;SDS011;963;42.644;23.336;2024-02-26T11:09:27;8.43;;;7.10;;
1471;SDS011;963;42.644;23.336;2024-02-26T11:11:52;8.93;;;5.77;;
1471;SDS011;963;42.644;23.336;2024-02-26T11:14:19;8.93;;;6.93;;
1471;SDS011;963;42.644;23.336;2024-02-26T11:16:46;10.00;;;6.97;;
1471;SDS011;963;42.644;23.336;2024-02-26T11:19:14;8.70;;;6.93;;
1471;SDS011;963;42.644;23.336;2024-02-26T11:21:41;9.13;;;6.10;;
1471;SDS011;963;42.644;23.336;2024-02-26T11:24:12;8.27;;;6.20;;
1471;SDS011;963;42.644;23.336;2024-02-26T11:26:43;9.93;;;6.37;;
1471;SDS011;963;42.644;23.336;2024-02-26T11:29:16;8.90;;;6.00;;
1471;SDS011;963;42.644;23.336;2024-02-26T11:31:46;8.67;;;6.17;;
1471;SDS011;963;42.644;23.336;2024-02-26T11:34:12;8.43;;;6.43;;
1471;SDS011;963;42.644;23.336;2024-02-26T11:36:38;10.03;;;6.57;;
1471;SDS011;963;42.644;23.336;2024-02-26T11:39:04;7.40;;;6.70;;
1471;SDS011;963;42.644;23.336;2024-02-26T11:41:30;7.43;;;5.70;;
1471;SDS011;963;42.644;23.336;2024-02-26T11:44:02;11.50;;;5.70;;
1471;SDS011;963;42.644;23.336;2024-02-26T11:46:31;9.17;;;5.60;;
1471;SDS011;963;42.644;23.336;2024-02-26T11:49:28;9.40;;;6.40;;
1471;SDS011;963;42.644;23.336;2024-02-26T11:51:52;8.07;;;6.33;;
1471;SDS011;963;42.644;23.336;2024-02-26T11:57:21;8.87;;;6.20;;
1471;SDS011;963;42.644;23.336;2024-02-26T11:59:57;8.53;;;5.77;;
1471;SDS011;963;42.644;23.336;2024-02-26T12:07:45;7.50;;;5.07;;
1471;SDS011;963;42.644;23.336;2024-02-26T12:13:05;8.13;;;5.57;;
1471;SDS011;963;42.644;23.336;2024-02-26T12:15:33;7.43;;;5.53;;
1471;SDS011;963;42.644;23.336;2024-02-26T12:18:02;9.60;;;6.00;;
1471;SDS011;963;42.644;23.336;2024-02-26T12:20:33;9.03;;;4.90;;
1471;SDS011;963;42.644;23.336;2024-02-26T12:22:58;8.80;;;5.43;;
1471;SDS011;963;42.644;23.336;2024-02-26T12:25:26;6.90;;;4.73;;
1471;SDS011;963;42.644;23.336;2024-02-26T12:27:54;6.70;;;4.40;;
1471;SDS011;963;42.644;23.336;2024-02-26T12:30:20;8.23;;;5.47;;
1471;SDS011;963;42.644;23.336;2024-02-26T12:32:47;8.70;;;5.23;;
1471;SDS011;963;42.644;23.336;2024-02-26T12:35:14;11.77;;;4.73;;
1471;SDS011;963;42.644;23.336;2024-02-26T12:37:40;6.90;;;4.43;;
1471;SDS011;963;42.644;23.336;2024-02-26T12:40:07;5.57;;;4.70;;
1471;SDS011;963;42.644;23.336;2024-02-26T12:42:34;9.80;;;4.97;;
1471;SDS011;963;42.644;23.336;2024-02-26T12:45:04;8.83;;;5.10;;
1471;SDS011;963;42.644;23.336;2024-02-26T12:47:35;5.93;;;4.80;;
1471;SDS011;963;42.644;23.336;2024-02-26T12:50:07;7.10;;;4.90;;
1471;SDS011;963;42.644;23.336;2024-02-26T12:52:34;6.70;;;4.27;;
1471;SDS011;963;42.644;23.336;2024-02-26T12:55:01;21.53;;;5.47;;
1471;SDS011;963;42.644;23.336;2024-02-26T12:57:28;7.73;;;5.10;;
1471;SDS011;963;42.644;23.336;2024-02-26T12:59:56;8.63;;;4.47;;
1471;SDS011;963;42.644;23.336;2024-02-26T13:02:23;7.97;;;4.50;;
1471;SDS011;963;42.644;23.336;2024-02-26T13:04:49;6.17;;;3.90;;
1471;SDS011;963;42.644;23.336;2024-02-26T13:07:15;9.50;;;4.70;;
1471;SDS011;963;42.644;23.336;2024-02-26T13:09:40;11.30;;;4.43;;
1471;SDS011;963;42.644;23.336;2024-02-26T13:12:06;6.10;;;3.87;;
1471;SDS011;963;42.644;23.336;2024-02-26T13:14:32;5.37;;;4.30;;
1471;SDS011;963;42.644;23.336;2024-02-26T13:16:59;8.77;;;4.90;;
1471;SDS011;963;42.644;23.336;2024-02-26T13:19:25;7.30;;;5.03;;
1471;SDS011;963;42.644;23.336;2024-02-26T13:21:51;10.40;;;4.83;;
1471;SDS011;963;42.644;23.336;2024-02-26T13:24:17;4.77;;;4.20;;
1471;SDS011;963;42.644;23.336;2024-02-26T13:26:45;6.13;;;4.07;;
1471;SDS011;963;42.644;23.336;2024-02-26T13:29:17;6.70;;;4.40;;
1471;SDS011;963;42.644;23.336;2024-02-26T13:31:43;9.73;;;5.43;;
1471;SDS011;963;42.644;23.336;2024-02-26T13:34:09;5.00;;;3.90;;
1471;SDS011;963;42.644;23.336;2024-02-26T13:36:34;7.50;;;4.90;;
1471;SDS011;963;42.644;23.336;2024-02-26T13:38:59;9.63;;;4.50;;
1471;SDS011;963;42.644;23.336;2024-02-26T13:41:26;5.07;;;3.80;;
1471;SDS011;963;42.644;23.336;2024-02-26T13:43:52;5.40;;;4.07;;
1471;SDS011;963;42.644;23.336;2024-02-26T13:46:17;8.13;;;4.30;;
1471;SDS011;963;42.644;23.336;2024-02-26T13:48:43;6.50;;;4.40;;
1471;SDS011;963;42.644;23.336;2024-02-26T13:51:09;5.50;;;3.93;;
1471;SDS011;963;42.644;23.336;2024-02-26T13:53:34;8.23;;;4.33;;
1471;SDS011;963;42.644;23.336;2024-02-26T13:56:00;10.20;;;4.63;;
1471;SDS011;963;42.644;23.336;2024-02-26T13:58:26;6.90;;;4.47;;
1471;SDS011;963;42.644;23.336;2024-02-26T14:00:52;7.03;;;4.43;;
1471;SDS011;963;42.644;23.336;2024-02-26T14:03:19;6.23;;;4.57;;
1471;SDS011;963;42.644;23.336;2024-02-26T14:05:45;5.17;;;3.87;;
1471;SDS011;963;42.644;23.336;2024-02-26T14:08:11;8.17;;;4.90;;
1471;SDS011;963;42.644;23.336;2024-02-26T14:10:36;5.40;;;4.60;;
1471;SDS011;963;42.644;23.336;2024-02-26T14:13:02;10.33;;;4.27;;
1471;SDS011;963;42.644;23.336;2024-02-26T14:15:28;8.93;;;4.60;;
1471;SDS011;963;42.644;23.336;2024-02-26T14:17:54;8.13;;;3.63;;
1471;SDS011;963;42.644;23.336;2024-02-26T14:20:21;6.20;;;4.37;;
1471;SDS011;963;42.644;23.336;2024-02-26T14:22:49;7.83;;;4.57;;
1471;SDS011;963;42.644;23.336;2024-02-26T14:25:16;7.00;;;4.30;;
1471;SDS011;963;42.644;23.336;2024-02-26T14:27:42;5.50;;;3.83;;
1471;SDS011;963;42.644;23.336;2024-02-26T14:30:07;6.30;;;3.87;;
1471;SDS011;963;42.644;23.336;2024-02-26T14:32:33;7.57;;;4.40;;
1471;SDS011;963;42.644;23.336;2024-02-26T14:35:01;6.57;;;3.77;;
1471;SDS011;963;42.644;23.336;2024-02-26T14:37:28;6.50;;;4.20;;
1471;SDS011;963;42.644;23.336;2024-02-26T14:39:53;9.00;;;3.67;;
1471;SDS011;963;42.644;23.336;2024-02-26T14:42:18;7.43;;;3.90;;
1471;SDS011;963;42.644;23.336;2024-02-26T14:44:44;12.07;;;4.97;;
1471;SDS011;963;42.644;23.336;2024-02-26T14:47:11;8.67;;;3.90;;
1471;SDS011;963;42.644;23.336;2024-02-26T14:49:36;6.93;;;4.53;;
1471;SDS011;963;42.644;23.336;2024-02-26T14:52:02;7.43;;;4.67;;
1471;SDS011;963;42.644;23.336;2024-02-26T14:54:28;8.33;;;4.33;;
1471;SDS011;963;42.644;23.336;2024-02-26T14:56:57;9.53;;;4.63;;
1471;SDS011;963;42.644;23.336;2024-02-26T14:59:23;7.93;;;4.50;;
1471;SDS011;963;42.644;23.336;2024-02-26T15:01:48;7.13;;;4.33;;
1471;SDS011;963;42.644;23.336;2024-02-26T15:04:13;6.67;;;4.27;;